TimeEST,TemperatureF,Dew PointF,Humidity,Sea Level PressureIn,VisibilityMPH,Wind Direction,Wind SpeedMPH,Gust SpeedMPH,PrecipitationIn,Events,Conditions,WindDirDegrees,DateUTC
12:53 AM,36.0,30.0,79,29.95,10.0,WNW,4.6,-,N/A,,Overcast,300,2006-01-01 05:53:00
1:31 AM,35.6,28.4,75,29.92,10.0,Calm,Calm,-,N/A,,Overcast,0,2006-01-01 06:31:00
1:53 AM,36.0,28.9,76,29.96,10.0,West,4.6,-,N/A,,Overcast,280,2006-01-01 06:53:00
2:53 AM,36.0,28.9,76,29.99,10.0,Calm,Calm,-,N/A,,Overcast,0,2006-01-01 07:53:00
3:53 AM,35.1,28.9,78,29.98,10.0,SSW,3.5,-,N/A,,Overcast,200,2006-01-01 08:53:00
4:53 AM,36.0,28.0,73,30.01,10.0,West,3.5,-,N/A,,Overcast,260,2006-01-01 09:53:00
5:53 AM,35.1,28.0,76,30.04,10.0,SW,4.6,-,N/A,,Overcast,220,2006-01-01 10:53:00
6:53 AM,35.1,28.0,76,30.06,10.0,SW,4.6,-,N/A,,Overcast,220,2006-01-01 11:53:00
7:53 AM,36.0,28.0,73,30.06,10.0,SW,5.8,-,N/A,,Overcast,220,2006-01-01 12:53:00
8:42 AM,35.6,28.4,75,30.06,10.0,SW,6.9,-,N/A,,Overcast,230,2006-01-01 13:42:00
8:53 AM,36.0,28.0,73,30.09,10.0,WSW,4.6,-,N/A,,Overcast,240,2006-01-01 13:53:00
9:53 AM,37.0,27.0,67,30.12,10.0,SW,6.9,-,N/A,,Overcast,230,2006-01-01 14:53:00
10:53 AM,37.0,27.0,67,30.11,10.0,West,3.5,-,N/A,,Overcast,270,2006-01-01 15:53:00
11:53 AM,39.0,28.0,65,30.11,10.0,SSW,5.8,-,N/A,,Overcast,210,2006-01-01 16:53:00
12:38 PM,39.2,28.4,65,30.06,10.0,SE,5.8,-,N/A,,Scattered Clouds,140,2006-01-01 17:38:00
12:53 PM,41.0,30.0,65,30.09,10.0,SSE,4.6,-,N/A,,Mostly Cloudy,150,2006-01-01 17:53:00
1:53 PM,42.1,28.9,60,30.08,10.0,Variable,4.6,-,N/A,,Clear,0,2006-01-01 18:53:00
2:53 PM,44.1,30.0,58,30.08,10.0,Variable,4.6,-,N/A,,Mostly Cloudy,0,2006-01-01 19:53:00
3:53 PM,44.1,30.0,58,30.09,10.0,SSW,5.8,-,N/A,,Mostly Cloudy,200,2006-01-01 20:53:00
4:53 PM,45.0,30.9,58,30.10,10.0,South,4.6,-,N/A,,Mostly Cloudy,190,2006-01-01 21:53:00
5:53 PM,42.1,30.9,65,30.09,10.0,ESE,4.6,-,N/A,,Mostly Cloudy,110,2006-01-01 22:53:00
6:53 PM,43.0,32.0,65,30.09,10.0,Calm,Calm,-,N/A,,Partly Cloudy,0,2006-01-01 23:53:00
7:53 PM,41.0,30.9,67,30.09,10.0,ESE,3.5,-,N/A,,Clear,120,2006-01-02 00:53:00
8:53 PM,41.0,30.9,67,30.07,10.0,SE,3.5,-,N/A,,Clear,130,2006-01-02 01:53:00
9:53 PM,42.1,30.0,62,30.06,10.0,Calm,Calm,-,N/A,,Clear,0,2006-01-02 02:53:00
10:53 PM,42.1,28.9,60,30.04,10.0,SE,6.9,-,N/A,,Clear,140,2006-01-02 03:53:00
11:53 PM,42.1,27.0,55,30.03,10.0,SE,4.6,-,N/A,,Clear,130,2006-01-02 04:53:00